sensor_id;sensor_type;location;lat;lon;timestamp;P1;durP1;ratioP1;P2;durP2;ratioP2
38901;SDS011;24661;53.566;9.910;2023-03-01T00:02:00;13.70;;;7.53;;
38901;SDS011;24661;53.566;9.910;2023-03-01T00:04:26;13.37;;;7.73;;
38901;SDS011;24661;53.566;9.910;2023-03-01T00:06:52;13.67;;;7.00;;
38901;SDS011;24661;53.566;9.910;2023-03-01T00:09:18;13.20;;;8.00;;
38901;SDS011;24661;53.566;9.910;2023-03-01T00:11:44;15.77;;;7.77;;
38901;SDS011;24661;53.566;9.910;2023-03-01T00:14:09;13.93;;;7.67;;
38901;SDS011;24661;53.566;9.910;2023-03-01T00:16:36;13.97;;;7.90;;
38901;SDS011;24661;53.566;9.910;2023-03-01T00:19:04;16.53;;;7.80;;
38901;SDS011;24661;53.566;9.910;2023-03-01T00:21:31;13.27;;;7.43;;
38901;SDS011;24661;53.566;9.910;2023-03-01T00:23:57;18.30;;;7.57;;
38901;SDS011;24661;53.566;9.910;2023-03-01T00:26:24;14.90;;;7.17;;
38901;SDS011;24661;53.566;9.910;2023-03-01T00:28:51;10.00;;;6.80;;
38901;SDS011;24661;53.566;9.910;2023-03-01T00:31:21;16.93;;;7.30;;
38901;SDS011;24661;53.566;9.910;2023-03-01T00:33:51;14.33;;;7.73;;
38901;SDS011;24661;53.566;9.910;2023-03-01T00:36:19;15.10;;;8.07;;
38901;SDS011;24661;53.566;9.910;2023-03-01T00:38:45;9.27;;;6.23;;
38901;SDS011;24661;53.566;9.910;2023-03-01T00:41:14;17.27;;;7.70;;
38901;SDS011;24661;53.566;9.910;2023-03-01T00:43:41;11.20;;;7.07;;
38901;SDS011;24661;53.566;9.910;2023-03-01T00:46:09;13.37;;;7.20;;
38901;SDS011;24661;53.566;9.910;2023-03-01T00:48:36;17.90;;;6.33;;
38901;SDS011;24661;53.566;9.910;2023-03-01T00:51:07;14.87;;;7.17;;
38901;SDS011;24661;53.566;9.910;2023-03-01T00:53:33;14.03;;;7.03;;
38901;SDS011;24661;53.566;9.910;2023-03-01T00:56:00;13.30;;;7.00;;
38901;SDS011;24661;53.566;9.910;2023-03-01T00:58:26;12.33;;;7.30;;
38901;SDS011;24661;53.566;9.910;2023-03-01T01:00:52;13.13;;;6.43;;
38901;SDS011;24661;53.566;9.910;2023-03-01T01:03:18;10.93;;;6.07;;
38901;SDS011;24661;53.566;9.910;2023-03-01T01:05:44;14.43;;;6.67;;
38901;SDS011;24661;53.566;9.910;2023-03-01T01:08:10;10.43;;;6.00;;
38901;SDS011;24661;53.566;9.910;2023-03-01T01:10:36;16.13;;;6.37;;
38901;SDS011;24661;53.566;9.910;2023-03-01T01:13:02;12.13;;;7.13;;
38901;SDS011;24661;53.566;9.910;2023-03-01T01:15:28;20.70;;;6.73;;
38901;SDS011;24661;53.566;9.910;2023-03-01T01:17:57;13.83;;;7.13;;
38901;SDS011;24661;53.566;9.910;2023-03-01T01:20:23;11.43;;;6.23;;
38901;SDS011;24661;53.566;9.910;2023-03-01T01:22:49;13.83;;;6.80;;
38901;SDS011;24661;53.566;9.910;2023-03-01T01:25:16;14.43;;;7.27;;
38901;SDS011;24661;53.566;9.910;2023-03-01T01:27:41;13.23;;;6.80;;
38901;SDS011;24661;53.566;9.910;2023-03-01T01:30:07;10.53;;;6.23;;
38901;SDS011;24661;53.566;9.910;2023-03-01T01:32:33;11.90;;;6.40;;
38901;SDS011;24661;53.566;9.910;2023-03-01T01:34:59;9.30;;;6.10;;
38901;SDS011;24661;53.566;9.910;2023-03-01T01:37:24;9.03;;;5.50;;
38901;SDS011;24661;53.566;9.910;2023-03-01T01:39:56;16.07;;;8.13;;
38901;SDS011;24661;53.566;9.910;2023-03-01T01:42:24;12.20;;;7.20;;
38901;SDS011;24661;53.566;9.910;2023-03-01T01:45:15;11.50;;;6.33;;
38901;SDS011;24661;53.566;9.910;2023-03-01T01:47:50;10.37;;;5.97;;
38901;SDS011;24661;53.566;9.910;2023-03-01T01:50:17;11.40;;;6.37;;
38901;SDS011;24661;53.566;9.910;2023-03-01T01:52:44;9.53;;;5.37;;
38901;SDS011;24661;53.566;9.910;2023-03-01T01:55:12;8.83;;;5.60;;
38901;SDS011;24661;53.566;9.910;2023-03-01T01:57:43;11.60;;;5.70;;
38901;SDS011;24661;53.566;9.910;2023-03-01T02:00:12;10.57;;;5.90;;
38901;SDS011;24661;53.566;9.910;2023-03-01T02:02:44;8.03;;;5.13;;
38901;SDS011;24661;53.566;9.910;2023-03-01T02:05:18;9.87;;;5.30;;
38901;SDS011;24661;53.566;9.910;2023-03-01T02:07:50;8.00;;;5.23;;
38901;SDS011;24661;53.566;9.910;2023-03-01T02:10:16;9.63;;;5.47;;
38901;SDS011;24661;53.566;9.910;2023-03-01T02:12:42;8.60;;;5.47;;
38901;SDS011;24661;53.566;9.910;2023-03-01T02:15:08;8.50;;;4.73;;
38901;SDS011;24661;53.566;9.910;2023-03-01T02:17:34;9.47;;;5.43;;
38901;SDS011;24661;53.566;9.910;2023-03-01T02:23:17;8.53;;;5.27;;
38901;SDS011;24661;53.566;9.910;2023-03-01T02:25:55;9.50;;;5.47;;
38901;SDS011;24661;53.566;9.910;2023-03-01T02:28:31;9.70;;;4.80;;
38901;SDS011;24661;53.566;9.910;2023-03-01T02:30:58;14.50;;;5.83;;
38901;SDS011;24661;53.566;9.910;2023-03-01T02:33:43;8.37;;;5.13;;
38901;SDS011;24661;53.566;9.910;2023-03-01T02:36:12;8.70;;;5.10;;
38901;SDS011;24661;53.566;9.910;2023-03-01T02:38:42;12.20;;;6.00;;
38901;SDS011;24661;53.566;9.910;2023-03-01T02:41:08;12.67;;;5.27;;
38901;SDS011;24661;53.566;9.910;2023-03-01T02:43:39;7.87;;;5.37;;
38901;SDS011;24661;53.566;9.910;2023-03-01T02:46:15;7.03;;;4.47;;
38901;SDS011;24661;53.566;9.910;2023-03-01T02:48:44;6.57;;;4.37;;
38901;SDS011;24661;53.566;9.910;2023-03-01T02:56:29;5.73;;;4.20;;
38901;SDS011;24661;53.566;9.910;2023-03-01T02:58:55;8.03;;;4.13;;
38901;SDS011;24661;53.566;9.910;2023-03-01T03:01:26;6.53;;;4.07;;
38901;SDS011;24661;53.566;9.910;2023-03-01T03:04:02;7.37;;;4.10;;
38901;SDS011;24661;53.566;9.910;2023-03-01T03:06:29;9.77;;;3.60;;
38901;SDS011;24661;53.566;9.910;2023-03-01T03:08:54;7.60;;;4.00;;
38901;SDS011;24661;53.566;9.910;2023-03-01T03:11:20;6.93;;;4.10;;
38901;SDS011;24661;53.566;9.910;2023-03-01T03:13:46;6.83;;;4.57;;
38901;SDS011;24661;53.566;9.910;2023-03-01T03:16:13;7.50;;;4.47;;
38901;SDS011;24661;53.566;9.910;2023-03-01T03:18:39;6.93;;;3.93;;
38901;SDS011;24661;53.566;9.910;2023-03-01T03:21:08;6.60;;;3.97;;
38901;SDS011;24661;53.566;9.910;2023-03-01T03:23:35;15.90;;;5.30;;
38901;SDS011;24661;53.566;9.910;2023-03-01T03:26:01;7.73;;;4.13;;
38901;SDS011;24661;53.566;9.910;2023-03-01T03:28:29;5.83;;;3.40;;
38901;SDS011;24661;53.566;9.910;2023-03-01T03:30:55;5.37;;;3.57;;
38901;SDS011;24661;53.566;9.910;2023-03-01T03:33:21;8.20;;;3.33;;
38901;SDS011;24661;53.566;9.910;2023-03-01T03:35:48;6.03;;;3.23;;
38901;SDS011;24661;53.566;9.910;2023-03-01T03:38:15;8.17;;;4.07;;
38901;SDS011;24661;53.566;9.910;2023-03-01T03:40:48;6.07;;;4.43;;
38901;SDS011;24661;53.566;9.910;2023-03-01T03:43:16;7.43;;;3.70;;
38901;SDS011;24661;53.566;9.910;2023-03-01T03:45:44;6.07;;;3.10;;
38901;SDS011;24661;53.566;9.910;2023-03-01T03:48:10;7.97;;;3.60;;
38901;SDS011;24661;53.566;9.910;2023-03-01T03:50:37;6.30;;;3.50;;
38901;SDS011;24661;53.566;9.910;2023-03-01T03:53:05;5.93;;;3.40;;
38901;SDS011;24661;53.566;9.910;2023-03-01T03:55:33;8.57;;;3.37;;
38901;SDS011;24661;53.566;9.910;2023-03-01T03:57:59;6.27;;;3.77;;
38901;SDS011;24661;53.566;9.910;2023-03-01T04:00:27;8.90;;;3.47;;
38901;SDS011;24661;53.566;9.910;2023-03-01T04:02:53;6.63;;;3.33;;
38901;SDS011;24661;53.566;9.910;2023-03-01T04:05:22;6.07;;;3.50;;
38901;SDS011;24661;53.566;9.910;2023-03-01T04:07:48;4.90;;;3.27;;
38901;SDS011;24661;53.566;9.910;2023-03-01T04:10:17;5.83;;;3.47;;
38901;SDS011;24661;53.566;9.910;2023-03-01T04:12:43;4.60;;;3.27;;
38901;SDS011;24661;53.566;9.910;2023-03-01T04:15:09;7.93;;;3.23;;
38901;SDS011;24661;53.566;9.910;2023-03-01T04:17:42;5.57;;;3.50;;
38901;SDS011;24661;53.566;9.910;2023-03-01T04:20:09;5.73;;;4.00;;
38901;SDS011;24661;53.566;9.910;2023-03-01T04:22:38;7.80;;;3.27;;
38901;SDS011;24661;53.566;9.910;2023-03-01T04:25:05;7.03;;;3.37;;
38901;SDS011;24661;53.566;9.910;2023-03-01T04:27:32;8.43;;;3.30;;
38901;SDS011;24661;53.566;9.910;2023-03-01T04:29:58;5.63;;;3.17;;
38901;SDS011;24661;53.566;9.910;2023-03-01T04:32:24;7.87;;;3.23;;
38901;SDS011;24661;53.566;9.910;2023-03-01T04:34:50;7.43;;;3.40;;
38901;SDS011;24661;53.566;9.910;2023-03-01T04:37:15;6.97;;;2.70;;
38901;SDS011;24661;53.566;9.910;2023-03-01T04:39:41;6.10;;;3.30;;
38901;SDS011;24661;53.566;9.910;2023-03-01T04:42:14;4.83;;;2.73;;
38901;SDS011;24661;53.566;9.910;2023-03-01T04:44:40;12.87;;;3.40;;
38901;SDS011;24661;53.566;9.910;2023-03-01T04:47:06;8.20;;;3.77;;
38901;SDS011;24661;53.566;9.910;2023-03-01T04:49:31;4.80;;;3.10;;
38901;SDS011;24661;53.566;9.910;2023-03-01T04:51:57;6.27;;;3.40;;
38901;SDS011;24661;53.566;9.910;2023-03-01T04:54:26;4.33;;;2.73;;
38901;SDS011;24661;53.566;9.910;2023-03-01T04:56:56;7.93;;;3.30;;
38901;SDS011;24661;53.566;9.910;2023-03-01T04:59:22;5.97;;;2.80;;
38901;SDS011;24661;53.566;9.910;2023-03-01T05:01:48;6.87;;;3.30;;
38901;SDS011;24661;53.566;9.910;2023-03-01T05:04:15;4.47;;;2.97;;
38901;SDS011;24661;53.566;9.910;2023-03-01T05:06:40;5.57;;;2.70;;
38901;SDS011;24661;53.566;9.910;2023-03-01T05:09:06;3.63;;;2.70;;
38901;SDS011;24661;53.566;9.910;2023-03-01T05:11:32;11.03;;;3.77;;
38901;SDS011;24661;53.566;9.910;2023-03-01T05:14:01;5.63;;;3.07;;
38901;SDS011;24661;53.566;9.910;2023-03-01T05:16:27;3.87;;;2.47;;
38901;SDS011;24661;53.566;9.910;2023-03-01T05:18:53;8.00;;;3.67;;
38901;SDS011;24661;53.566;9.910;2023-03-01T05:21:20;8.03;;;3.23;;
38901;SDS011;24661;53.566;9.910;2023-03-01T05:23:46;10.30;;;3.60;;
38901;SDS011;24661;53.566;9.910;2023-03-01T05:26:12;12.43;;;3.77;;
38901;SDS011;24661;53.566;9.910;2023-03-01T05:28:38;5.27;;;3.00;;
38901;SDS011;24661;53.566;9.910;2023-03-01T05:31:04;7.13;;;3.37;;
38901;SDS011;24661;53.566;9.910;2023-03-01T05:33:37;11.93;;;2.83;;
38901;SDS011;24661;53.566;9.910;2023-03-01T05:36:04;4.67;;;3.07;;
38901;SDS011;24661;53.566;9.910;2023-03-01T05:38:34;5.43;;;3.40;;
38901;SDS011;24661;53.566;9.910;2023-03-01T05:41:00;5.77;;;2.60;;
38901;SDS011;24661;53.566;9.910;2023-03-01T05:43:26;8.93;;;3.33;;
38901;SDS011;24661;53.566;9.910;2023-03-01T05:45:54;11.13;;;3.57;;
38901;SDS011;24661;53.566;9.910;2023-03-01T05:48:22;4.53;;;2.93;;
38901;SDS011;24661;53.566;9.910;2023-03-01T05:50:48;6.83;;;3.57;;
38901;SDS011;24661;53.566;9.910;2023-03-01T05:53:15;6.17;;;3.07;;
38901;SDS011;24661;53.566;9.910;2023-03-01T05:55:42;7.50;;;3.27;;
38901;SDS011;24661;53.566;9.910;2023-03-01T05:58:10;9.83;;;3.33;;
38901;SDS011;24661;53.566;9.910;2023-03-01T06:00:39;7.83;;;3.90;;
38901;SDS011;24661;53.566;9.910;2023-03-01T06:03:05;11.40;;;3.70;;
38901;SDS011;24661;53.566;9.910;2023-03-01T06:05:31;9.47;;;3.70;;
38901;SDS011;24661;53.566;9.910;2023-03-01T06:08:00;5.97;;;3.60;;
38901;SDS011;24661;53.566;9.910;2023-03-01T06:10:26;9.63;;;3.30;;
38901;SDS011;24661;53.566;9.910;2023-03-01T06:12:52;7.43;;;4.33;;
38901;SDS011;24661;53.566;9.910;2023-03-01T06:15:19;14.27;;;4.13;;
38901;SDS011;24661;53.566;9.910;2023-03-01T06:17:45;11.73;;;3.47;;
38901;SDS011;24661;53.566;9.910;2023-03-01T06:20:13;14.63;;;3.80;;
38901;SDS011;24661;53.566;9.910;2023-03-01T06:22:42;7.73;;;3.57;;
38901;SDS011;24661;53.566;9.910;2023-03-01T06:25:08;13.33;;;3.97;;
38901;SDS011;24661;53.566;9.910;2023-03-01T06:27:35;5.93;;;3.27;;
38901;SDS011;24661;53.566;9.910;2023-03-01T06:30:02;6.53;;;3.40;;
38901;SDS011;24661;53.566;9.910;2023-03-01T06:32:28;9.57;;;3.60;;
38901;SDS011;24661;53.566;9.910;2023-03-01T06:34:55;13.63;;;4.63;;
38901;SDS011;24661;53.566;9.910;2023-03-01T06:37:20;8.37;;;4.13;;
38901;SDS011;24661;53.566;9.910;2023-03-01T06:39:46;6.00;;;3.90;;
38901;SDS011;24661;53.566;9.910;2023-03-01T06:42:12;8.37;;;3.83;;
38901;SDS011;24661;53.566;9.910;2023-03-01T06:44:37;11.47;;;3.50;;
38901;SDS011;24661;53.566;9.910;2023-03-01T06:47:04;8.37;;;3.20;;
38901;SDS011;24661;53.566;9.910;2023-03-01T06:49:30;12.77;;;3.73;;
38901;SDS011;24661;53.566;9.910;2023-03-01T06:51:56;11.57;;;3.80;;
38901;SDS011;24661;53.566;9.910;2023-03-01T06:54:22;12.97;;;4.60;;
38901;SDS011;24661;53.566;9.910;2023-03-01T06:56:48;5.70;;;3.63;;
38901;SDS011;24661;53.566;9.910;2023-03-01T06:59:15;11.03;;;3.80;;
38901;SDS011;24661;53.566;9.910;2023-03-01T07:01:41;11.80;;;4.30;;
38901;SDS011;24661;53.566;9.910;2023-03-01T07:04:08;6.00;;;3.80;;
38901;SDS011;24661;53.566;9.910;2023-03-01T07:06:34;17.90;;;4.00;;
38901;SDS011;24661;53.566;9.910;2023-03-01T07:09:00;7.90;;;4.03;;
38901;SDS011;24661;53.566;9.910;2023-03-01T07:11:26;5.63;;;3.93;;
38901;SDS011;24661;53.566;9.910;2023-03-01T07:13:51;10.60;;;4.37;;
38901;SDS011;24661;53.566;9.910;2023-03-01T07:16:17;7.10;;;5.27;;
38901;SDS011;24661;53.566;9.910;2023-03-01T07:18:43;9.43;;;4.47;;
38901;SDS011;24661;53.566;9.910;2023-03-01T07:21:09;12.13;;;4.97;;
38901;SDS011;24661;53.566;9.910;2023-03-01T07:23:37;14.80;;;6.17;;
38901;SDS011;24661;53.566;9.910;2023-03-01T07:26:03;14.83;;;6.90;;
38901;SDS011;24661;53.566;9.910;2023-03-01T07:28:28;23.40;;;9.83;;
38901;SDS011;24661;53.566;9.910;2023-03-01T07:30:55;23.57;;;11.27;;
38901;SDS011;24661;53.566;9.910;2023-03-01T07:33:26;11.83;;;6.93;;
38901;SDS011;24661;53.566;9.910;2023-03-01T07:35:55;22.30;;;8.77;;
38901;SDS011;24661;53.566;9.910;2023-03-01T07:38:23;13.30;;;6.60;;
38901;SDS011;24661;53.566;9.910;2023-03-01T07:40:48;9.90;;;5.43;;
38901;SDS011;24661;53.566;9.910;2023-03-01T07:43:14;8.97;;;4.93;;
38901;SDS011;24661;53.566;9.910;2023-03-01T07:45:39;12.00;;;5.50;;
38901;SDS011;24661;53.566;9.910;2023-03-01T07:48:05;8.87;;;5.23;;
38901;SDS011;24661;53.566;9.910;2023-03-01T07:50:31;8.57;;;4.93;;
38901;SDS011;24661;53.566;9.910;2023-03-01T07:52:56;7.57;;;4.97;;
38901;SDS011;24661;53.566;9.910;2023-03-01T07:55:22;10.50;;;5.23;;
38901;SDS011;24661;53.566;9.910;2023-03-01T07:57:48;9.03;;;6.10;;
38901;SDS011;24661;53.566;9.910;2023-03-01T08:00:13;8.17;;;5.83;;
38901;SDS011;24661;53.566;9.910;2023-03-01T08:02:39;9.93;;;5.87;;
38901;SDS011;24661;53.566;9.910;2023-03-01T08:05:06;10.87;;;7.33;;
38901;SDS011;24661;53.566;9.910;2023-03-01T08:07:33;13.70;;;7.00;;
38901;SDS011;24661;53.566;9.910;2023-03-01T08:09:59;13.83;;;7.10;;
38901;SDS011;24661;53.566;9.910;2023-03-01T08:12:25;12.37;;;6.83;;
38901;SDS011;24661;53.566;9.910;2023-03-01T08:14:52;13.80;;;8.07;;
38901;SDS011;24661;53.566;9.910;2023-03-01T08:17:18;14.37;;;8.57;;
38901;SDS011;24661;53.566;9.910;2023-03-01T08:19:44;10.97;;;7.33;;
38901;SDS011;24661;53.566;9.910;2023-03-01T08:22:10;18.23;;;8.40;;
38901;SDS011;24661;53.566;9.910;2023-03-01T08:24:35;11.77;;;7.83;;
38901;SDS011;24661;53.566;9.910;2023-03-01T08:27:01;11.73;;;7.80;;
38901;SDS011;24661;53.566;9.910;2023-03-01T08:29:27;14.57;;;7.73;;
38901;SDS011;24661;53.566;9.910;2023-03-01T08:31:56;15.53;;;7.43;;
38901;SDS011;24661;53.566;9.910;2023-03-01T08:34:21;16.50;;;8.13;;
38901;SDS011;24661;53.566;9.910;2023-03-01T08:36:47;15.40;;;8.57;;
38901;SDS011;24661;53.566;9.910;2023-03-01T08:39:15;13.40;;;8.10;;
38901;SDS011;24661;53.566;9.910;2023-03-01T08:41:41;11.80;;;8.27;;
38901;SDS011;24661;53.566;9.910;2023-03-01T08:44:09;13.93;;;8.13;;
38901;SDS011;24661;53.566;9.910;2023-03-01T08:46:37;13.93;;;9.33;;
38901;SDS011;24661;53.566;9.910;2023-03-01T08:49:04;14.23;;;9.10;;
38901;SDS011;24661;53.566;9.910;2023-03-01T08:51:31;14.20;;;9.63;;
38901;SDS011;24661;53.566;9.910;2023-03-01T08:54:05;19.63;;;10.30;;
38901;SDS011;24661;53.566;9.910;2023-03-01T08:56:32;13.80;;;9.53;;
38901;SDS011;24661;53.566;9.910;2023-03-01T08:58:58;13.40;;;8.77;;
38901;SDS011;24661;53.566;9.910;2023-03-01T09:01:24;12.63;;;8.70;;
38901;SDS011;24661;53.566;9.910;2023-03-01T09:03:50;17.53;;;9.27;;
38901;SDS011;24661;53.566;9.910;2023-03-01T09:06:16;11.63;;;8.23;;
38901;SDS011;24661;53.566;9.910;2023-03-01T09:08:43;14.60;;;9.73;;
38901;SDS011;24661;53.566;9.910;2023-03-01T09:11:11;11.83;;;8.73;;
38901;SDS011;24661;53.566;9.910;2023-03-01T09:13:39;15.47;;;9.50;;
38901;SDS011;24661;53.566;9.910;2023-03-01T09:16:05;13.67;;;8.53;;
38901;SDS011;24661;53.566;9.910;2023-03-01T09:18:32;13.77;;;9.57;;
38901;SDS011;24661;53.566;9.910;2023-03-01T09:21:07;13.13;;;8.83;;
38901;SDS011;24661;53.566;9.910;2023-03-01T09:23:34;13.70;;;9.27;;
38901;SDS011;24661;53.566;9.910;2023-03-01T09:26:09;14.00;;;8.77;;
38901;SDS011;24661;53.566;9.910;2023-03-01T09:28:41;14.13;;;9.17;;
38901;SDS011;24661;53.566;9.910;2023-03-01T09:31:07;15.37;;;8.20;;
38901;SDS011;24661;53.566;9.910;2023-03-01T09:33:33;12.23;;;9.40;;
38901;SDS011;24661;53.566;9.910;2023-03-01T09:36:00;12.23;;;8.40;;
38901;SDS011;24661;53.566;9.910;2023-03-01T09:38:28;13.47;;;9.10;;
38901;SDS011;24661;53.566;9.910;2023-03-01T09:40:54;19.70;;;10.03;;
38901;SDS011;24661;53.566;9.910;2023-03-01T09:43:31;14.43;;;8.90;;
38901;SDS011;24661;53.566;9.910;2023-03-01T09:45:59;22.47;;;11.17;;
38901;SDS011;24661;53.566;9.910;2023-03-01T09:48:30;14.63;;;8.93;;
38901;SDS011;24661;53.566;9.910;2023-03-01T09:51:06;14.47;;;8.93;;
38901;SDS011;24661;53.566;9.910;2023-03-01T09:53:37;13.60;;;9.20;;
38901;SDS011;24661;53.566;9.910;2023-03-01T09:58:54;18.23;;;9.80;;
38901;SDS011;24661;53.566;9.910;2023-03-01T10:01:34;15.07;;;9.07;;
38901;SDS011;24661;53.566;9.910;2023-03-01T10:09:36;15.27;;;8.80;;
38901;SDS011;24661;53.566;9.910;2023-03-01T10:12:11;12.60;;;8.63;;
38901;SDS011;24661;53.566;9.910;2023-03-01T10:23:13;14.67;;;8.93;;
38901;SDS011;24661;53.566;9.910;2023-03-01T10:31:18;16.20;;;9.30;;
38901;SDS011;24661;53.566;9.910;2023-03-01T10:33:52;14.47;;;8.80;;
38901;SDS011;24661;53.566;9.910;2023-03-01T10:36:20;11.33;;;8.47;;
38901;SDS011;24661;53.566;9.910;2023-03-01T10:38:54;16.27;;;9.03;;
38901;SDS011;24661;53.566;9.910;2023-03-01T10:41:22;12.80;;;8.73;;
38901;SDS011;24661;53.566;9.910;2023-03-01T10:43:50;13.93;;;8.03;;
38901;SDS011;24661;53.566;9.910;2023-03-01T10:46:33;18.40;;;9.53;;
38901;SDS011;24661;53.566;9.910;2023-03-01T10:49:19;16.13;;;9.33;;
38901;SDS011;24661;53.566;9.910;2023-03-01T10:51:47;17.97;;;8.27;;
38901;SDS011;24661;53.566;9.910;2023-03-01T10:57:37;11.93;;;8.27;;
38901;SDS011;24661;53.566;9.910;2023-03-01T11:00:19;14.83;;;8.30;;
38901;SDS011;24661;53.566;9.910;2023-03-01T11:03:01;11.47;;;8.27;;
38901;SDS011;24661;53.566;9.910;2023-03-01T11:05:34;19.37;;;9.07;;
38901;SDS011;24661;53.566;9.910;2023-03-01T11:08:00;13.17;;;7.30;;
38901;SDS011;24661;53.566;9.910;2023-03-01T11:10:29;11.90;;;7.90;;
38901;SDS011;24661;53.566;9.910;2023-03-01T11:13:18;12.53;;;7.70;;
38901;SDS011;24661;53.566;9.910;2023-03-01T11:16:03;15.47;;;8.40;;
38901;SDS011;24661;53.566;9.910;2023-03-01T11:18:32;15.80;;;8.03;;
38901;SDS011;24661;53.566;9.910;2023-03-01T11:20:59;12.40;;;6.30;;
38901;SDS011;24661;53.566;9.910;2023-03-01T11:23:27;11.63;;;7.00;;
38901;SDS011;24661;53.566;9.910;2023-03-01T11:25:56;12.80;;;7.60;;
38901;SDS011;24661;53.566;9.910;2023-03-01T11:28:25;10.67;;;6.27;;
38901;SDS011;24661;53.566;9.910;2023-03-01T11:30:56;11.43;;;7.00;;
38901;SDS011;24661;53.566;9.910;2023-03-01T11:33:41;11.83;;;5.87;;
38901;SDS011;24661;53.566;9.910;2023-03-01T11:38:48;11.70;;;7.07;;
38901;SDS011;24661;53.566;9.910;2023-03-01T11:41:21;13.97;;;6.93;;
38901;SDS011;24661;53.566;9.910;2023-03-01T12:01:07;8.43;;;4.93;;
38901;SDS011;24661;53.566;9.910;2023-03-01T12:06:50;10.40;;;5.53;;
38901;SDS011;24661;53.566;9.910;2023-03-01T12:15:19;7.13;;;4.50;;
38901;SDS011;24661;53.566;9.910;2023-03-01T12:20:42;9.70;;;3.47;;
38901;SDS011;24661;53.566;9.910;2023-03-01T12:23:33;6.33;;;4.47;;
38901;SDS011;24661;53.566;9.910;2023-03-01T12:26:28;6.20;;;4.43;;
38901;SDS011;24661;53.566;9.910;2023-03-01T12:51:23;4.50;;;4.00;;
38901;SDS011;24661;53.566;9.910;2023-03-01T12:53:53;6.33;;;4.13;;
38901;SDS011;24661;53.566;9.910;2023-03-01T12:56:31;7.33;;;4.10;;
38901;SDS011;24661;53.566;9.910;2023-03-01T13:01:54;4.43;;;3.50;;
38901;SDS011;24661;53.566;9.910;2023-03-01T13:08:00;8.03;;;3.90;;
38901;SDS011;24661;53.566;9.910;2023-03-01T13:15:35;4.40;;;3.23;;
38901;SDS011;24661;53.566;9.910;2023-03-01T13:31:10;6.00;;;4.33;;
38901;SDS011;24661;53.566;9.910;2023-03-01T13:33:47;8.40;;;4.50;;
38901;SDS011;24661;53.566;9.910;2023-03-01T13:38:57;7.90;;;4.60;;
38901;SDS011;24661;53.566;9.910;2023-03-01T13:42:25;5.53;;;4.37;;
38901;SDS011;24661;53.566;9.910;2023-03-01T13:44:32;7.10;;;4.40;;
38901;SDS011;24661;53.566;9.910;2023-03-01T13:50:06;7.60;;;5.07;;
38901;SDS011;24661;53.566;9.910;2023-03-01T13:52:43;8.30;;;5.20;;
38901;SDS011;24661;53.566;9.910;2023-03-01T13:55:24;9.97;;;5.97;;
38901;SDS011;24661;53.566;9.910;2023-03-01T13:57:53;7.90;;;5.43;;
38901;SDS011;24661;53.566;9.910;2023-03-01T14:00:29;10.43;;;5.00;;
38901;SDS011;24661;53.566;9.910;2023-03-01T14:03:18;8.30;;;5.30;;
38901;SDS011;24661;53.566;9.910;2023-03-01T14:08:31;6.70;;;5.53;;
38901;SDS011;24661;53.566;9.910;2023-03-01T14:13:51;6.13;;;5.33;;
38901;SDS011;24661;53.566;9.910;2023-03-01T14:19:21;6.63;;;5.17;;
38901;SDS011;24661;53.566;9.910;2023-03-01T14:24:51;6.60;;;5.10;;
38901;SDS011;24661;53.566;9.910;2023-03-01T14:27:21;8.07;;;5.63;;
38901;SDS011;24661;53.566;9.910;2023-03-01T14:30:21;6.20;;;5.00;;
38901;SDS011;24661;53.566;9.910;2023-03-01T14:32:58;7.70;;;4.70;;
38901;SDS011;24661;53.566;9.910;2023-03-01T14:35:27;6.40;;;4.10;;
38901;SDS011;24661;53.566;9.910;2023-03-01T14:37:54;6.17;;;4.77;;
38901;SDS011;24661;53.566;9.910;2023-03-01T14:40:33;4.37;;;3.83;;
38901;SDS011;24661;53.566;9.910;2023-03-01T14:43:01;5.90;;;4.17;;
38901;SDS011;24661;53.566;9.910;2023-03-01T14:45:34;8.77;;;5.20;;
38901;SDS011;24661;53.566;9.910;2023-03-01T14:48:02;5.13;;;4.17;;
38901;SDS011;24661;53.566;9.910;2023-03-01T14:50:30;6.23;;;4.87;;
38901;SDS011;24661;53.566;9.910;2023-03-01T14:53:04;6.20;;;4.83;;
38901;SDS011;24661;53.566;9.910;2023-03-01T14:55:34;9.40;;;5.03;;
38901;SDS011;24661;53.566;9.910;2023-03-01T14:58:04;8.83;;;5.23;;
38901;SDS011;24661;53.566;9.910;2023-03-01T15:00:31;8.10;;;4.63;;
38901;SDS011;24661;53.566;9.910;2023-03-01T15:03:00;7.63;;;5.43;;
38901;SDS011;24661;53.566;9.910;2023-03-01T15:05:40;6.53;;;4.77;;
38901;SDS011;24661;53.566;9.910;2023-03-01T15:08:08;8.00;;;5.30;;
38901;SDS011;24661;53.566;9.910;2023-03-01T15:13:32;9.30;;;5.00;;
38901;SDS011;24661;53.566;9.910;2023-03-01T15:16:09;8.23;;;4.27;;
38901;SDS011;24661;53.566;9.910;2023-03-01T15:18:38;7.23;;;4.17;;
38901;SDS011;24661;53.566;9.910;2023-03-01T15:24:02;7.83;;;4.83;;
38901;SDS011;24661;53.566;9.910;2023-03-01T15:26:40;8.80;;;5.20;;
38901;SDS011;24661;53.566;9.910;2023-03-01T15:29:18;10.20;;;5.70;;
38901;SDS011;24661;53.566;9.910;2023-03-01T15:31:59;8.33;;;5.23;;
38901;SDS011;24661;53.566;9.910;2023-03-01T15:34:32;7.13;;;5.03;;
38901;SDS011;24661;53.566;9.910;2023-03-01T15:37:03;8.33;;;5.60;;
38901;SDS011;24661;53.566;9.910;2023-03-01T15:42:12;10.87;;;5.70;;
38901;SDS011;24661;53.566;9.910;2023-03-01T15:45:11;8.67;;;6.00;;
38901;SDS011;24661;53.566;9.910;2023-03-01T15:47:52;10.43;;;6.17;;
38901;SDS011;24661;53.566;9.910;2023-03-01T15:50:29;11.73;;;5.70;;
38901;SDS011;24661;53.566;9.910;2023-03-01T15:53:03;12.97;;;7.30;;
38901;SDS011;24661;53.566;9.910;2023-03-01T15:55:32;13.67;;;8.23;;
38901;SDS011;24661;53.566;9.910;2023-03-01T16:00:46;15.00;;;8.60;;
38901;SDS011;24661;53.566;9.910;2023-03-01T16:03:22;12.70;;;8.13;;
38901;SDS011;24661;53.566;9.910;2023-03-01T16:05:48;15.80;;;8.70;;
38901;SDS011;24661;53.566;9.910;2023-03-01T16:08:20;11.93;;;8.20;;
38901;SDS011;24661;53.566;9.910;2023-03-01T16:10:46;16.83;;;9.77;;
38901;SDS011;24661;53.566;9.910;2023-03-01T16:13:16;13.83;;;8.40;;
38901;SDS011;24661;53.566;9.910;2023-03-01T16:15:42;15.73;;;8.80;;
38901;SDS011;24661;53.566;9.910;2023-03-01T16:18:09;14.93;;;9.10;;
38901;SDS011;24661;53.566;9.910;2023-03-01T16:20:39;18.53;;;9.30;;
38901;SDS011;24661;53.566;9.910;2023-03-01T16:23:06;17.73;;;10.27;;
38901;SDS011;24661;53.566;9.910;2023-03-01T16:25:33;15.90;;;9.17;;
38901;SDS011;24661;53.566;9.910;2023-03-01T16:28:00;18.50;;;9.47;;
38901;SDS011;24661;53.566;9.910;2023-03-01T16:30:29;15.07;;;9.57;;
38901;SDS011;24661;53.566;9.910;2023-03-01T16:32:55;17.83;;;8.83;;
38901;SDS011;24661;53.566;9.910;2023-03-01T16:35:21;20.77;;;10.77;;
38901;SDS011;24661;53.566;9.910;2023-03-01T16:37:47;17.10;;;9.37;;
38901;SDS011;24661;53.566;9.910;2023-03-01T16:40:24;15.80;;;9.13;;
38901;SDS011;24661;53.566;9.910;2023-03-01T16:42:52;15.83;;;8.97;;
38901;SDS011;24661;53.566;9.910;2023-03-01T16:45:20;15.07;;;9.40;;
38901;SDS011;24661;53.566;9.910;2023-03-01T16:47:46;16.17;;;8.67;;
38901;SDS011;24661;53.566;9.910;2023-03-01T16:50:11;14.37;;;8.37;;
38901;SDS011;24661;53.566;9.910;2023-03-01T16:52:37;16.00;;;9.20;;
38901;SDS011;24661;53.566;9.910;2023-03-01T16:55:05;14.63;;;7.60;;
38901;SDS011;24661;53.566;9.910;2023-03-01T16:57:34;15.50;;;8.60;;
38901;SDS011;24661;53.566;9.910;2023-03-01T17:00:01;13.63;;;8.23;;
38901;SDS011;24661;53.566;9.910;2023-03-01T17:02:30;15.13;;;8.20;;
38901;SDS011;24661;53.566;9.910;2023-03-01T17:04:56;13.23;;;8.57;;
38901;SDS011;24661;53.566;9.910;2023-03-01T17:07:22;13.80;;;8.07;;
38901;SDS011;24661;53.566;9.910;2023-03-01T17:09:48;11.67;;;7.70;;
38901;SDS011;24661;53.566;9.910;2023-03-01T17:12:14;13.80;;;8.23;;
38901;SDS011;24661;53.566;9.910;2023-03-01T17:14:40;12.40;;;7.80;;